createdAt,value
2022-09-02T00:02:12.591Z,9.27
2022-09-02T00:04:40.786Z,12.63
2022-09-02T00:07:09.103Z,11.45
2022-09-02T00:09:40.518Z,9.30
2022-09-02T00:12:10.690Z,9.13
2022-09-02T00:14:40.044Z,9.82
2022-09-02T00:17:08.286Z,10.93
2022-09-02T00:19:38.476Z,12.15
2022-09-02T00:22:06.499Z,11.05
2022-09-02T00:24:34.633Z,8.73
2022-09-02T00:27:05.736Z,8.48
2022-09-02T00:29:33.676Z,10.65
2022-09-02T00:32:01.815Z,6.30
2022-09-02T00:34:29.831Z,9.90
2022-09-02T00:36:57.886Z,8.15
2022-09-02T00:39:26.235Z,7.50
2022-09-02T00:41:54.577Z,6.47
2022-09-02T00:44:24.109Z,8.57
2022-09-02T00:46:52.248Z,6.15
2022-09-02T00:49:25.721Z,8.32
2022-09-02T00:51:58.757Z,8.10
2022-09-02T00:54:29.347Z,9.07
2022-09-02T00:56:57.844Z,8.15
2022-09-02T00:59:37.072Z,6.82
2022-09-02T01:02:06.309Z,7.22
2022-09-02T01:04:35.396Z,7.68
2022-09-02T01:07:04.557Z,8.02
2022-09-02T01:09:33.578Z,9.10
2022-09-02T01:12:03.612Z,8.40
2022-09-02T01:14:35.131Z,7.35
2022-09-02T01:17:04.032Z,7.50
2022-09-02T01:19:36.001Z,7.35
2022-09-02T01:22:07.681Z,8.82
2022-09-02T01:24:35.924Z,7.65
2022-09-02T01:27:04.272Z,6.47
2022-09-02T01:29:32.841Z,13.75
2022-09-02T01:32:03.076Z,6.60
2022-09-02T01:34:31.118Z,6.70
2022-09-02T01:36:59.290Z,4.35
2022-09-02T01:39:28.726Z,7.13
2022-09-02T01:41:56.967Z,6.30
2022-09-02T01:44:25.094Z,8.13
2022-09-02T01:46:53.250Z,7.00
2022-09-02T01:49:21.461Z,8.27
2022-09-02T01:51:49.757Z,8.10
2022-09-02T01:54:17.885Z,5.22
2022-09-02T01:56:47.599Z,7.75
2022-09-02T01:59:18.095Z,9.35
2022-09-02T02:01:46.957Z,5.82
2022-09-02T02:04:16.042Z,5.90
2022-09-02T02:06:46.070Z,5.88
2022-09-02T02:09:17.628Z,7.32
2022-09-02T02:11:48.096Z,7.55
2022-09-02T02:14:16.318Z,6.47
2022-09-02T02:16:44.394Z,5.45
2022-09-02T02:19:12.405Z,8.90
2022-09-02T02:21:41.450Z,9.55
2022-09-02T02:24:10.138Z,6.78
2022-09-02T02:26:38.491Z,10.60
2022-09-02T02:29:08.047Z,8.32
2022-09-02T02:31:36.314Z,6.15
2022-09-02T02:34:04.585Z,9.30
2022-09-02T02:36:32.902Z,8.52
2022-09-02T02:39:01.925Z,8.73
2022-09-02T02:41:31.774Z,7.22
2022-09-02T02:44:00.224Z,9.95
2022-09-02T02:46:31.300Z,8.70
2022-09-02T02:49:00.775Z,7.63
2022-09-02T02:51:28.962Z,9.93
2022-09-02T02:53:58.957Z,8.18
2022-09-02T02:56:27.165Z,10.00
2022-09-02T02:58:55.881Z,8.93
2022-09-02T03:01:24.994Z,6.63
2022-09-02T03:03:54.550Z,10.77
2022-09-02T03:06:26.641Z,8.80
2022-09-02T03:08:55.108Z,9.77
2022-09-02T03:11:23.858Z,12.30
2022-09-02T03:13:52.505Z,12.48
2022-09-02T03:16:20.919Z,11.48
2022-09-02T03:18:50.056Z,15.35
2022-09-02T03:21:20.071Z,15.68
2022-09-02T03:23:49.027Z,17.65
2022-09-02T03:26:24.873Z,11.38
2022-09-02T03:28:55.964Z,11.55
2022-09-02T03:31:26.698Z,15.43
2022-09-02T03:33:54.834Z,13.95
2022-09-02T03:36:26.968Z,13.05
2022-09-02T03:38:55.846Z,16.30
2022-09-02T03:41:24.325Z,13.38
2022-09-02T03:43:52.790Z,11.02
2022-09-02T03:46:21.148Z,17.08
2022-09-02T03:48:51.909Z,17.73
2022-09-02T03:51:20.637Z,22.35
2022-09-02T03:53:50.183Z,13.85
2022-09-02T03:56:18.397Z,18.08
2022-09-02T03:58:48.437Z,15.63
2022-09-02T04:01:19.693Z,16.60
2022-09-02T04:03:48.941Z,16.05
2022-09-02T04:06:20.102Z,15.43
2022-09-02T04:08:50.033Z,13.05
2022-09-02T04:11:21.424Z,14.13
2022-09-02T04:13:51.958Z,13.52
2022-09-02T04:16:27.509Z,12.32
2022-09-02T04:18:56.807Z,10.68
2022-09-02T04:21:25.009Z,12.75
2022-09-02T04:23:54.850Z,13.50
2022-09-02T04:26:23.882Z,12.40
2022-09-02T04:28:54.208Z,14.10
2022-09-02T04:31:25.714Z,8.52
2022-09-02T04:33:56.686Z,13.00
2022-09-02T04:36:25.846Z,14.20
2022-09-02T04:39:00.728Z,14.50
2022-09-02T04:41:32.706Z,11.13
2022-09-02T04:44:01.354Z,10.75
2022-09-02T04:46:34.623Z,11.32
2022-09-02T04:49:03.294Z,12.30
2022-09-02T04:51:31.823Z,9.13
2022-09-02T04:54:02.211Z,13.23
2022-09-02T04:56:32.304Z,9.80
2022-09-02T04:59:00.829Z,13.30
2022-09-02T05:01:33.524Z,10.65
2022-09-02T05:04:02.989Z,9.60
2022-09-02T05:06:31.248Z,11.20
2022-09-02T05:09:01.960Z,11.15
2022-09-02T05:11:31.919Z,12.68
2022-09-02T05:14:02.548Z,16.27
2022-09-02T05:16:33.959Z,11.95
2022-09-02T05:19:03.507Z,12.18
2022-09-02T05:21:32.272Z,10.07
2022-09-02T05:24:04.255Z,12.18
2022-09-02T05:26:36.164Z,10.88
2022-09-02T05:29:06.972Z,13.07
2022-09-02T05:31:35.515Z,13.80
2022-09-02T05:34:03.733Z,9.02
2022-09-02T05:36:33.046Z,9.43
2022-09-02T05:39:02.205Z,9.23
2022-09-02T05:41:32.186Z,13.43
2022-09-02T05:44:03.853Z,12.02
2022-09-02T05:46:32.835Z,8.73
2022-09-02T05:49:17.731Z,10.93
2022-09-02T05:51:48.517Z,10.45
2022-09-02T05:54:19.243Z,8.88
2022-09-02T05:56:50.944Z,11.57
2022-09-02T05:59:20.448Z,9.57
2022-09-02T06:01:49.063Z,11.52
2022-09-02T06:04:18.206Z,8.50
2022-09-02T06:06:47.235Z,13.73
2022-09-02T06:09:17.563Z,9.68
2022-09-02T06:11:49.320Z,9.95
2022-09-02T06:14:20.515Z,10.63
2022-09-02T06:16:48.975Z,9.88
2022-09-02T06:19:20.212Z,8.70
2022-09-02T06:21:49.711Z,7.60
2022-09-02T06:24:18.336Z,10.55
2022-09-02T06:26:46.686Z,11.10
2022-09-02T06:29:15.340Z,8.63
2022-09-02T06:31:46.721Z,10.90
2022-09-02T06:34:16.461Z,8.02
2022-09-02T06:36:46.974Z,9.38
2022-09-02T06:39:18.655Z,13.43
2022-09-02T06:41:49.065Z,9.23
2022-09-02T06:44:18.161Z,12.00
2022-09-02T06:46:54.578Z,11.10
2022-09-02T06:49:23.423Z,9.05
2022-09-02T06:51:54.261Z,7.75
2022-09-02T06:54:24.020Z,10.55
2022-09-02T06:56:53.480Z,11.20
2022-09-02T06:59:22.663Z,8.80
2022-09-02T07:01:52.493Z,9.15
2022-09-02T07:04:37.993Z,11.65
2022-09-02T07:07:08.266Z,8.75
2022-09-02T07:09:36.583Z,9.50
2022-09-02T07:12:05.838Z,9.63
2022-09-02T07:14:38.724Z,8.73
2022-09-02T07:17:09.310Z,10.23
2022-09-02T07:19:37.638Z,11.07
2022-09-02T07:22:06.354Z,11.20
2022-09-02T07:24:34.504Z,14.43
2022-09-02T07:27:03.310Z,10.70
2022-09-02T07:29:31.504Z,11.00
2022-09-02T07:31:59.842Z,10.23
2022-09-02T07:34:29.375Z,9.15
2022-09-02T07:37:02.626Z,12.40
2022-09-02T07:39:32.343Z,11.35
2022-09-02T07:42:02.134Z,12.30
2022-09-02T07:44:30.262Z,10.52
2022-09-02T07:46:58.443Z,12.82
2022-09-02T07:49:27.019Z,9.50
2022-09-02T07:51:56.589Z,8.70
2022-09-02T07:54:26.974Z,13.27
2022-09-02T07:56:56.361Z,11.38
2022-09-02T07:59:24.857Z,10.85
2022-09-02T08:01:57.485Z,7.53
2022-09-02T08:04:25.732Z,14.27
2022-09-02T08:06:54.631Z,9.82
2022-09-02T08:09:24.649Z,8.02
2022-09-02T08:11:55.741Z,7.03
2022-09-02T08:14:28.744Z,10.18
2022-09-02T08:16:58.511Z,8.05
2022-09-02T08:19:27.573Z,8.40
2022-09-02T08:21:56.953Z,10.27
2022-09-02T08:24:27.018Z,6.75
2022-09-02T08:26:55.161Z,7.82
2022-09-02T08:29:23.614Z,8.10
2022-09-02T08:31:53.986Z,10.23
2022-09-02T08:34:23.065Z,8.18
2022-09-02T08:36:56.974Z,9.45
2022-09-02T08:39:27.074Z,6.72
2022-09-02T08:42:06.930Z,7.00
2022-09-02T08:44:38.713Z,10.38
2022-09-02T08:47:14.619Z,7.85
2022-09-02T08:49:46.626Z,7.63
2022-09-02T08:52:21.280Z,9.73
2022-09-02T08:54:55.677Z,7.97
2022-09-02T08:57:27.665Z,8.15
2022-09-02T09:00:01.123Z,8.00
2022-09-02T09:02:45.975Z,10.30
2022-09-02T09:05:27.900Z,6.90
2022-09-02T09:08:14.555Z,8.88
2022-09-02T09:10:58.089Z,8.07
2022-09-02T09:14:01.614Z,6.35
2022-09-02T09:16:41.418Z,10.25
2022-09-02T09:19:14.615Z,10.65
2022-09-02T09:21:43.515Z,8.43
2022-09-02T09:24:23.141Z,5.78
2022-09-02T09:26:54.120Z,5.72
2022-09-02T09:29:22.404Z,8.70
2022-09-02T09:31:55.618Z,7.32
2022-09-02T09:34:23.665Z,7.95
2022-09-02T09:36:56.113Z,7.28
2022-09-02T09:39:27.722Z,6.68
2022-09-02T09:41:58.896Z,6.95
2022-09-02T09:44:45.994Z,6.18
2022-09-02T09:47:20.586Z,5.80
2022-09-02T09:49:50.453Z,6.72
2022-09-02T09:52:26.338Z,6.15
2022-09-02T09:55:24.345Z,6.30
2022-09-02T09:58:10.542Z,8.15
2022-09-02T10:03:09.449Z,5.13
2022-09-02T10:05:39.072Z,7.13
2022-09-02T10:08:20.674Z,7.82
2022-09-02T10:10:58.550Z,9.75
2022-09-02T10:13:30.980Z,9.20
2022-09-02T10:16:22.471Z,9.18
2022-09-02T10:18:58.732Z,7.15
2022-09-02T10:21:45.676Z,6.28
2022-09-02T10:24:35.982Z,8.48
2022-09-02T10:27:10.093Z,7.80
2022-09-02T10:29:50.331Z,6.70
2022-09-02T10:32:33.243Z,11.25
2022-09-02T10:35:12.230Z,8.73
2022-09-02T10:37:53.540Z,6.18
2022-09-02T10:40:28.663Z,6.40
2022-09-02T10:43:05.727Z,7.18
2022-09-02T10:45:39.533Z,6.40
2022-09-02T10:48:28.571Z,4.70
2022-09-02T10:51:05.587Z,5.45
2022-09-02T10:53:49.035Z,6.07
2022-09-02T10:56:22.049Z,8.43
2022-09-02T10:58:57.379Z,7.40
2022-09-02T11:01:30.193Z,8.77
2022-09-02T11:04:09.703Z,7.05
2022-09-02T11:07:01.298Z,7.95
2022-09-02T11:09:36.910Z,6.00
2022-09-02T11:12:11.110Z,7.32
2022-09-02T11:14:52.726Z,9.43
2022-09-02T11:17:31.328Z,5.78
2022-09-02T11:20:09.375Z,7.00
2022-09-02T11:22:43.939Z,8.00
2022-09-02T11:27:47.973Z,10.43
2022-09-02T11:30:21.015Z,9.77
2022-09-02T11:32:56.873Z,8.88
2022-09-02T11:35:30.204Z,7.43
2022-09-02T11:38:04.913Z,8.82
2022-09-02T11:40:38.948Z,8.50
2022-09-02T11:43:29.318Z,11.98
2022-09-02T11:46:14.467Z,8.98
2022-09-02T11:49:13.685Z,9.18
2022-09-02T11:52:01.203Z,6.07
2022-09-02T11:54:37.055Z,9.00
2022-09-02T11:57:08.041Z,10.43
2022-09-02T12:00:07.439Z,6.90
2022-09-02T12:02:39.847Z,8.50
2022-09-02T12:05:43.896Z,7.05
2022-09-02T12:08:55.310Z,6.70
2022-09-02T12:11:43.755Z,6.20
2022-09-02T12:14:13.820Z,6.65
2022-09-02T12:16:44.344Z,8.90
2022-09-02T12:19:27.934Z,7.40
2022-09-02T12:22:28.979Z,7.32
2022-09-02T12:25:00.046Z,7.15
2022-09-02T12:27:31.563Z,9.35
2022-09-02T12:30:00.571Z,6.50
2022-09-02T12:33:05.312Z,7.18
2022-09-02T12:35:50.399Z,8.55
2022-09-02T12:38:35.504Z,7.55
2022-09-02T12:44:11.678Z,9.88
2022-09-02T12:47:01.786Z,8.63
2022-09-02T12:49:52.301Z,9.25
2022-09-02T12:52:44.349Z,8.70
2022-09-02T12:55:25.311Z,9.05
2022-09-02T12:57:57.302Z,8.52
2022-09-02T13:00:34.803Z,5.28
2022-09-02T13:03:24.622Z,9.48
2022-09-02T13:05:57.386Z,5.45
2022-09-02T13:08:54.682Z,7.68
2022-09-02T13:11:54.527Z,8.10
2022-09-02T13:14:55.232Z,7.70
2022-09-02T13:17:36.435Z,6.60
2022-09-02T13:20:55.973Z,4.88
2022-09-02T13:24:02.958Z,6.60
2022-09-02T13:27:03.712Z,6.57
2022-09-02T13:30:10.089Z,7.30
2022-09-02T13:32:39.578Z,9.85
2022-09-02T13:35:09.506Z,9.65
2022-09-02T13:37:39.968Z,6.63
2022-09-02T13:40:19.430Z,6.25
2022-09-02T13:42:51.209Z,7.93
2022-09-02T13:45:22.486Z,8.10
2022-09-02T13:47:53.276Z,6.35
2022-09-02T13:50:24.647Z,7.55
2022-09-02T13:55:50.813Z,5.40
2022-09-02T13:58:36.641Z,5.90
2022-09-02T14:01:23.161Z,6.13
2022-09-02T14:03:53.386Z,6.93
2022-09-02T14:06:24.720Z,7.30
2022-09-02T14:08:55.917Z,6.30
2022-09-02T14:11:24.542Z,7.45
2022-09-02T14:13:53.471Z,33.00
2022-09-02T14:16:34.052Z,38.30
2022-09-02T14:19:11.570Z,20.73
2022-09-02T14:21:47.565Z,25.08
2022-09-02T14:24:20.927Z,14.13
2022-09-02T14:26:52.023Z,9.07
2022-09-02T14:29:21.225Z,9.05
2022-09-02T14:32:07.521Z,7.57
2022-09-02T14:34:37.988Z,6.47
2022-09-02T14:37:19.908Z,8.23
2022-09-02T14:40:11.717Z,5.07
2022-09-02T14:42:49.658Z,6.25
2022-09-02T14:45:28.026Z,5.93
2022-09-02T14:47:59.427Z,5.53
2022-09-02T14:50:32.640Z,6.20
2022-09-02T14:53:04.914Z,4.63
2022-09-02T14:55:46.898Z,5.97
2022-09-02T14:58:15.874Z,4.82
2022-09-02T15:00:52.157Z,5.50
2022-09-02T15:03:22.283Z,5.00
2022-09-02T15:05:50.884Z,5.90
2022-09-02T15:08:19.168Z,5.18
2022-09-02T15:10:47.360Z,6.57
2022-09-02T15:13:23.196Z,6.55
2022-09-02T15:15:55.474Z,5.82
2022-09-02T15:18:25.197Z,6.25
2022-09-02T15:20:54.207Z,5.28
2022-09-02T15:23:24.216Z,6.75
2022-09-02T15:25:54.176Z,7.68
2022-09-02T15:28:22.204Z,7.28
2022-09-02T15:30:50.336Z,7.25
2022-09-02T15:33:18.545Z,8.13
2022-09-02T15:35:48.322Z,8.10
2022-09-02T15:38:17.261Z,7.80
2022-09-02T15:40:45.486Z,8.52
2022-09-02T15:43:14.000Z,6.68
2022-09-02T15:45:47.192Z,7.55
2022-09-02T15:48:15.436Z,8.27
2022-09-02T15:50:46.412Z,7.93
2022-09-02T15:53:17.142Z,8.50
2022-09-02T15:55:45.153Z,7.10
2022-09-02T15:58:13.360Z,7.20
2022-09-02T16:00:41.431Z,9.00
2022-09-02T16:03:11.967Z,7.97
2022-09-02T16:05:43.207Z,7.32
2022-09-02T16:08:19.609Z,9.15
2022-09-02T16:10:50.765Z,7.90
2022-09-02T16:13:19.334Z,7.03
2022-09-02T16:15:47.433Z,7.55
2022-09-02T16:18:16.225Z,7.35
2022-09-02T16:20:44.245Z,6.88
2022-09-02T16:23:12.699Z,7.18
2022-09-02T16:25:41.696Z,9.27
2022-09-02T16:28:12.605Z,6.05
2022-09-02T16:30:44.528Z,5.40
2022-09-02T16:33:14.791Z,7.43
2022-09-02T16:35:43.548Z,8.23
2022-09-02T16:38:11.743Z,8.25
2022-09-02T16:40:39.923Z,9.10
2022-09-02T16:43:08.378Z,8.82
2022-09-02T16:45:37.799Z,8.23
2022-09-02T16:48:06.215Z,10.23
2022-09-02T16:50:34.567Z,8.70
2022-09-02T16:53:02.808Z,13.77
2022-09-02T16:55:31.452Z,9.55
2022-09-02T16:58:06.496Z,12.57
2022-09-02T17:00:34.620Z,9.45
2022-09-02T17:03:04.487Z,4.93
2022-09-02T17:05:32.568Z,7.07
2022-09-02T17:08:01.796Z,6.78
2022-09-02T17:10:30.987Z,13.05
2022-09-02T17:12:59.431Z,6.68
2022-09-02T17:15:29.741Z,6.57
2022-09-02T17:17:58.253Z,6.65
2022-09-02T17:20:28.147Z,6.53
2022-09-02T17:22:56.604Z,7.32
2022-09-02T17:25:24.653Z,5.88
2022-09-02T17:27:52.742Z,6.40
2022-09-02T17:30:23.851Z,6.57
2022-09-02T17:32:56.341Z,6.03
2022-09-02T17:35:26.044Z,7.60
2022-09-02T17:37:58.231Z,6.20
2022-09-02T17:40:43.876Z,7.43
2022-09-02T17:43:12.336Z,7.22
2022-09-02T17:45:40.828Z,6.90
2022-09-02T17:48:35.437Z,8.43
2022-09-02T17:51:02.019Z,7.22
2022-09-02T17:53:32.032Z,10.02
2022-09-02T17:56:12.978Z,7.57
2022-09-02T17:58:55.245Z,9.35
2022-09-02T18:01:28.638Z,7.85
2022-09-02T18:04:08.139Z,9.23
2022-09-02T18:06:40.712Z,7.45
2022-09-02T18:09:11.432Z,7.57
2022-09-02T18:11:42.337Z,8.75
2022-09-02T18:14:18.157Z,9.80
2022-09-02T18:16:59.509Z,8.30
2022-09-02T18:19:44.135Z,6.25
2022-09-02T18:22:30.255Z,8.80
2022-09-02T18:25:16.355Z,8.93
2022-09-02T18:27:53.701Z,8.15
2022-09-02T18:30:24.224Z,7.65
2022-09-02T18:33:14.763Z,7.53
2022-09-02T18:35:52.309Z,9.82
2022-09-02T18:38:29.314Z,9.88
2022-09-02T18:41:14.304Z,8.30
2022-09-02T18:44:10.105Z,6.20
2022-09-02T18:46:47.110Z,8.65
2022-09-02T18:49:16.473Z,8.75
2022-09-02T18:51:45.361Z,8.02
2022-09-02T18:54:17.053Z,10.90
2022-09-02T18:56:52.050Z,7.68
2022-09-02T18:59:28.679Z,7.35
2022-09-02T19:02:02.304Z,8.30
2022-09-02T19:04:37.029Z,8.20
2022-09-02T19:07:24.284Z,8.60
2022-09-02T19:09:52.481Z,11.30
2022-09-02T19:12:22.567Z,12.48
2022-09-02T19:14:50.946Z,10.13
2022-09-02T19:17:19.137Z,9.82
2022-09-02T19:19:49.776Z,10.77
2022-09-02T19:22:22.032Z,9.52
2022-09-02T19:24:57.170Z,12.88
2022-09-02T19:27:31.834Z,16.25
2022-09-02T19:30:04.647Z,16.15
2022-09-02T19:32:36.847Z,16.17
2022-09-02T19:35:09.984Z,13.35
2022-09-02T19:37:44.575Z,15.68
2022-09-02T19:40:14.820Z,12.00
2022-09-02T19:42:44.421Z,12.98
2022-09-02T19:45:16.157Z,17.55
2022-09-02T19:48:06.117Z,13.27
2022-09-02T19:50:33.441Z,10.57
2022-09-02T19:53:01.957Z,14.85
2022-09-02T19:55:30.026Z,12.48
2022-09-02T19:58:00.284Z,11.63
2022-09-02T20:00:29.318Z,13.07
2022-09-02T20:02:59.540Z,15.10
2022-09-02T20:05:28.356Z,11.88
2022-09-02T20:07:56.510Z,14.32
2022-09-02T20:10:27.695Z,15.32
2022-09-02T20:12:56.777Z,14.43
2022-09-02T20:15:26.591Z,12.85
2022-09-02T20:17:54.721Z,9.20
2022-09-02T20:20:26.419Z,11.48
2022-09-02T20:22:57.593Z,9.73
2022-09-02T20:25:35.622Z,10.63
2022-09-02T20:28:14.193Z,10.70
2022-09-02T20:30:52.350Z,8.38
2022-09-02T20:33:22.049Z,10.18
2022-09-02T20:36:03.971Z,12.55
2022-09-02T20:38:57.854Z,10.25
2022-09-02T20:41:35.054Z,10.10
2022-09-02T20:44:24.045Z,9.45
2022-09-02T20:47:24.604Z,10.38
2022-09-02T20:50:12.982Z,9.63
2022-09-02T20:52:54.702Z,8.90
2022-09-02T20:55:26.890Z,7.47
2022-09-02T20:58:19.345Z,10.15
2022-09-02T21:01:01.277Z,8.80
2022-09-02T21:03:41.090Z,9.30
2022-09-02T21:06:12.226Z,8.30
2022-09-02T21:08:57.093Z,7.88
2022-09-02T21:14:05.233Z,8.13
2022-09-02T21:16:38.715Z,9.70
2022-09-02T21:19:14.622Z,7.15
2022-09-02T21:21:50.219Z,7.90
2022-09-02T21:24:24.357Z,7.28
2022-09-02T21:26:58.598Z,8.05
2022-09-02T21:29:32.569Z,9.00
2022-09-02T21:32:05.890Z,7.70
2022-09-02T21:34:40.096Z,7.95
2022-09-02T21:37:10.271Z,9.18
2022-09-02T21:39:44.219Z,7.75
2022-09-02T21:42:22.393Z,9.97
2022-09-02T21:45:06.588Z,8.93
2022-09-02T21:47:39.824Z,11.82
2022-09-02T21:50:15.733Z,8.30
2022-09-02T21:52:59.898Z,8.57
2022-09-02T21:55:42.652Z,6.60
2022-09-02T21:58:26.417Z,7.60
2022-09-02T22:01:02.434Z,7.32
2022-09-02T22:03:40.070Z,8.90
2022-09-02T22:06:16.470Z,6.97
2022-09-02T22:08:52.619Z,9.05
2022-09-02T22:11:32.636Z,7.38
2022-09-02T22:14:14.478Z,10.65
2022-09-02T22:16:54.878Z,7.28
2022-09-02T22:19:26.141Z,7.70
2022-09-02T22:22:02.575Z,6.60
2022-09-02T22:24:34.366Z,5.70
2022-09-02T22:27:11.595Z,6.80
2022-09-02T22:29:46.681Z,7.30
2022-09-02T22:32:18.155Z,7.60
2022-09-02T22:34:51.911Z,6.60
2022-09-02T22:37:38.794Z,5.90
2022-09-02T22:40:11.453Z,7.88
2022-09-02T22:42:41.714Z,5.63
2022-09-02T22:45:31.064Z,8.55
2022-09-02T22:48:37.258Z,7.60
2022-09-02T22:51:32.541Z,11.40
2022-09-02T22:54:01.982Z,7.97
2022-09-02T22:56:40.725Z,8.48
2022-09-02T22:59:24.328Z,9.63
2022-09-02T23:02:02.035Z,6.78
2022-09-02T23:04:51.248Z,6.82
2022-09-02T23:07:19.270Z,6.65
2022-09-02T23:09:53.808Z,8.82
2022-09-02T23:12:32.196Z,6.18
2022-09-02T23:15:14.809Z,8.75
2022-09-02T23:17:57.967Z,5.30
2022-09-02T23:20:40.277Z,8.45
2022-09-02T23:23:23.161Z,8.27
2022-09-02T23:26:10.081Z,6.88
2022-09-02T23:28:54.340Z,6.85
2022-09-02T23:31:37.156Z,6.80
2022-09-02T23:34:20.027Z,6.38
2022-09-02T23:36:57.698Z,7.82
2022-09-02T23:39:39.074Z,6.47
2022-09-02T23:42:08.881Z,6.88
2022-09-02T23:44:39.867Z,7.55
2022-09-02T23:47:19.453Z,7.40
2022-09-02T23:49:58.788Z,8.15
2022-09-02T23:52:32.972Z,8.80
2022-09-02T23:55:09.128Z,8.50
2022-09-02T23:57:53.909Z,7.57
